Time;durP1;ratioP1;P1;durP2;ratioP2;P2;SDS_P1;SDS_P2;PMS_P1;PMS_P2;Temp;Humidity;BMP_temperature;BMP_pressure;BME280_temperature;BME280_humidity;BME280_pressure;Samples;Min_cycle;Max_cycle;Signal;HPM_P1;HPM_P2
2021/05/13 00:00:06;;;;;;;5.40;3.40;;;;;;;-139.48;100.00;61774.03;4979464;28;20053;-70
2021/05/13 00:02:50;;;;;;;6.78;3.22;;;;;;;-139.48;100.00;61774.03;4992924;28;20506;-70
2021/05/13 00:05:34;;;;;;;6.32;3.10;;;;;;;-139.48;100.00;61774.03;4993078;28;20427;-70
2021/05/13 00:08:18;;;;;;;6.03;3.30;;;;;;;-139.48;100.00;61774.03;4993757;28;20433;-70
2021/05/13 00:11:04;;;;;;;7.95;3.70;;;;;;;-139.48;100.00;61774.03;5017408;22;20061;-69
2021/05/13 00:13:48;;;;;;;6.18;3.17;;;;;;;-139.48;100.00;61774.03;4992254;28;20052;-69
2021/05/13 00:16:34;;;;;;;7.00;3.80;;;;;;;-139.48;100.00;61774.03;4993741;28;20089;-69
2021/05/13 00:19:18;;;;;;;9.63;3.50;;;;;;;-139.48;100.00;61774.03;4992609;28;20103;-69
2021/05/13 00:22:02;;;;;;;8.30;3.88;;;;;;;-139.48;100.00;61774.03;4979141;28;20503;-69
2021/05/13 00:24:46;;;;;;;6.57;3.20;;;;;;;-139.48;100.00;61774.03;4979003;28;20092;-69
2021/05/13 00:27:30;;;;;;;4.65;3.53;;;;;;;-139.48;100.00;61774.03;4993512;28;20579;-69
2021/05/13 00:30:15;;;;;;;7.50;3.60;;;;;;;-139.48;100.00;61774.03;4992640;28;20061;-69
2021/05/13 00:32:59;;;;;;;6.68;3.65;;;;;;;-139.48;100.00;61774.03;4992408;28;20060;-69
2021/05/13 00:35:43;;;;;;;6.53;3.53;;;;;;;-139.48;100.00;61774.03;4992837;28;20164;-69
2021/05/13 00:38:27;;;;;;;7.00;3.90;;;;;;;-139.48;100.00;61774.03;4992596;28;20077;-69
2021/05/13 00:41:10;;;;;;;5.38;3.75;;;;;;;-139.48;100.00;61774.03;4978509;28;20049;-69
2021/05/13 00:43:56;;;;;;;10.93;3.80;;;;;;;-139.48;100.00;61774.03;4992452;28;20081;-69
2021/05/13 00:46:40;;;;;;;5.53;3.42;;;;;;;-139.48;100.00;61774.03;4992497;28;20052;-69
2021/05/13 00:49:24;;;;;;;5.13;3.40;;;;;;;-139.48;100.00;61774.03;4992380;28;20053;-69
2021/05/13 00:52:09;;;;;;;5.43;3.35;;;;;;;-139.48;100.00;61774.03;4992432;28;20049;-69
2021/05/13 00:54:53;;;;;;;7.10;3.40;;;;;;;-139.48;100.00;61774.03;4992179;28;20431;-69
2021/05/13 00:57:40;;;;;;;10.32;4.32;;;;;;;-139.48;100.00;61774.03;4992374;28;20054;-67
2021/05/13 01:03:20;;;;;;;5.28;3.38;;;;;;;-139.48;100.00;61774.03;4993437;28;20184;-69
2021/05/13 01:06:05;;;;;;;6.03;3.40;;;;;;;-139.48;100.00;61774.03;4992038;28;20088;-69
2021/05/13 01:08:49;;;;;;;5.43;3.03;;;;;;;-139.48;100.00;61774.03;4978633;28;20414;-69
2021/05/13 01:11:36;;;;;;;7.35;3.17;;;;;;;-139.48;100.00;61774.03;4993287;28;20521;-69
2021/05/13 01:14:27;;;;;;;4.40;3.10;;;;;;;-139.48;100.00;61774.03;4992321;28;20049;-69
2021/05/13 01:17:36;;;;;;;5.53;3.17;;;;;;;-139.48;100.00;61774.03;4993022;28;20050;-66
2021/05/13 01:20:20;;;;;;;5.95;3.38;;;;;;;-139.48;100.00;61774.03;4992149;28;20096;-69
2021/05/13 01:23:07;;;;;;;9.90;3.38;;;;;;;-139.48;100.00;61774.03;4992181;28;20633;-69
2021/05/13 01:25:54;;;;;;;5.03;3.17;;;;;;;-139.48;100.00;61774.03;4994731;28;20049;-69
2021/05/13 01:28:38;;;;;;;6.78;2.90;;;;;;;-139.48;100.00;61774.03;4982170;28;20586;-69
2021/05/13 01:31:22;;;;;;;6.63;2.97;;;;;;;-139.48;100.00;61774.03;4996664;28;20184;-68
2021/05/13 01:34:07;;;;;;;7.97;3.17;;;;;;;-139.48;100.00;61774.03;4996938;28;20049;-69
2021/05/13 01:36:51;;;;;;;3.60;3.20;;;;;;;-139.48;100.00;61774.03;4996815;28;20053;-69
2021/05/13 01:39:35;;;;;;;6.35;3.22;;;;;;;-139.48;100.00;61774.03;4995683;28;20056;-69
2021/05/13 01:42:19;;;;;;;3.92;3.22;;;;;;;-139.48;100.00;61774.03;4996159;28;20064;-69
2021/05/13 01:45:03;;;;;;;5.55;2.80;;;;;;;-139.48;100.00;61774.03;4995619;28;20045;-69
2021/05/13 01:47:47;;;;;;;5.40;3.10;;;;;;;-139.48;100.00;61774.03;4996856;28;20129;-69
2021/05/13 01:50:32;;;;;;;3.40;3.10;;;;;;;-139.48;100.00;61774.03;4981845;28;20046;-69
2021/05/13 01:53:17;;;;;;;5.05;3.25;;;;;;;-139.48;100.00;61774.03;4995651;28;20115;-69
2021/05/13 01:56:01;;;;;;;6.38;3.00;;;;;;;-139.48;100.00;61774.03;4981872;28;20503;-67
2021/05/13 01:58:45;;;;;;;5.78;2.83;;;;;;;-139.48;100.00;61774.03;4996599;28;20072;-69
2021/05/13 02:01:30;;;;;;;4.18;2.53;;;;;;;-139.48;100.00;61774.03;4996489;28;20188;-69
2021/05/13 02:04:13;;;;;;;4.63;2.70;;;;;;;-139.48;100.00;61774.03;4994981;28;20096;-69
2021/05/13 02:06:57;;;;;;;4.28;2.92;;;;;;;-139.48;100.00;61774.03;4996286;28;20447;-69
2021/05/13 02:09:41;;;;;;;3.65;3.13;;;;;;;-139.48;100.00;61774.03;4981445;28;20379;-69
2021/05/13 02:12:25;;;;;;;3.70;2.97;;;;;;;-139.48;100.00;61774.03;4994885;28;20084;-69
2021/05/13 02:15:14;;;;;;;4.57;3.17;;;;;;;-139.48;100.00;61774.03;4981294;28;20093;-69
2021/05/13 02:17:58;;;;;;;6.22;3.75;;;;;;;-139.48;100.00;61774.03;4981372;28;20134;-69
2021/05/13 02:20:42;;;;;;;5.82;3.38;;;;;;;-139.48;100.00;61774.03;4994966;28;20057;-69
2021/05/13 02:23:26;;;;;;;6.70;3.60;;;;;;;-139.48;100.00;61774.03;4980953;28;20129;-69
2021/05/13 02:26:10;;;;;;;7.63;3.45;;;;;;;-139.48;100.00;61774.03;4994815;28;20053;-69
2021/05/13 02:28:55;;;;;;;3.75;2.83;;;;;;;-139.48;100.00;61774.03;4994807;28;20097;-69
2021/05/13 02:31:39;;;;;;;8.23;4.25;;;;;;;-139.48;100.00;61774.03;4994545;28;20100;-69
2021/05/13 02:34:23;;;;;;;4.13;3.30;;;;;;;-139.48;100.00;61774.03;4994732;28;20088;-69
2021/05/13 02:37:07;;;;;;;6.53;3.30;;;;;;;-139.48;100.00;61774.03;4994107;28;20060;-69
2021/05/13 02:39:51;;;;;;;4.75;3.47;;;;;;;-139.48;100.00;61774.03;4994532;28;20065;-69
2021/05/13 02:42:36;;;;;;;5.63;3.20;;;;;;;-139.48;100.00;61774.03;4995664;28;20526;-69
2021/05/13 02:45:20;;;;;;;7.97;3.42;;;;;;;-139.48;100.00;61774.03;4994231;28;20518;-69
2021/05/13 02:48:04;;;;;;;5.05;3.90;;;;;;;-139.48;100.00;61774.03;4980745;28;20108;-69
2021/05/13 02:50:48;;;;;;;5.78;3.35;;;;;;;-139.48;100.00;61774.03;4994258;28;20057;-69
2021/05/13 02:53:32;;;;;;;6.75;4.20;;;;;;;-139.48;100.00;61774.03;4980653;28;20085;-69
2021/05/13 02:56:16;;;;;;;9.82;3.40;;;;;;;-139.48;100.00;61774.03;4994194;28;20058;-69
2021/05/13 02:59:00;;;;;;;5.47;3.50;;;;;;;-139.48;100.00;61774.03;4994645;28;20379;-69
2021/05/13 03:01:44;;;;;;;4.60;3.85;;;;;;;-139.48;100.00;61774.03;4994234;28;20077;-69
2021/05/13 03:04:28;;;;;;;6.18;4.00;;;;;;;-139.48;100.00;61774.03;4994154;28;20521;-69
2021/05/13 03:07:13;;;;;;;9.57;3.80;;;;;;;-139.48;100.00;61774.03;4994163;28;20055;-67
2021/05/13 03:09:58;;;;;;;4.65;3.88;;;;;;;-139.48;100.00;61774.03;4994868;28;20085;-69
2021/05/13 03:12:43;;;;;;;6.78;4.07;;;;;;;-139.48;100.00;61774.03;4994058;28;20049;-69
2021/05/13 03:15:29;;;;;;;11.15;4.40;;;;;;;-139.48;100.00;61774.03;4993797;28;20050;-69
2021/05/13 03:18:12;;;;;;;4.53;3.75;;;;;;;-139.48;100.00;61774.03;4994005;28;20048;-68
2021/05/13 03:21:05;;;;;;;8.48;4.50;;;;;;;-139.48;100.00;61774.03;4995152;28;20065;-69
2021/05/13 03:29:27;;;;;;;5.60;4.15;;;;;;;-139.48;100.00;61774.03;4993957;28;20404;-69
2021/05/13 03:32:11;;;;;;;12.02;4.68;;;;;;;-139.48;100.00;61774.03;4993896;28;20100;-69
2021/05/13 03:34:55;;;;;;;10.98;4.43;;;;;;;-139.48;100.00;61774.03;4994444;28;20174;-69
2021/05/13 03:37:39;;;;;;;8.95;4.15;;;;;;;-139.48;100.00;61774.03;4994612;28;20053;-69
2021/05/13 03:40:23;;;;;;;6.80;3.83;;;;;;;-139.48;100.00;61774.03;4993424;28;20104;-69
2021/05/13 03:43:08;;;;;;;4.45;3.58;;;;;;;-139.48;100.00;61774.03;4993665;28;20057;-68
2021/05/13 03:45:52;;;;;;;7.57;3.70;;;;;;;-139.48;100.00;61774.03;4993134;28;20046;-69
2021/05/13 03:48:36;;;;;;;10.75;4.28;;;;;;;-139.48;100.00;61774.03;4979610;28;20564;-69
2021/05/13 03:51:20;;;;;;;7.70;4.28;;;;;;;-139.48;100.00;61774.03;4979499;28;20052;-69
2021/05/13 03:54:04;;;;;;;4.93;3.53;;;;;;;-139.48;100.00;61774.03;4994325;28;20082;-69
2021/05/13 03:56:48;;;;;;;7.95;4.47;;;;;;;-139.48;100.00;61774.03;4993219;28;20092;-69
2021/05/13 03:59:37;;;;;;;7.00;4.78;;;;;;;-139.48;100.00;61774.03;4993100;28;20120;-69
2021/05/13 04:02:32;;;;;;;9.65;4.45;;;;;;;-139.48;100.00;61774.03;4992971;28;20136;-69
2021/05/13 04:05:16;;;;;;;13.95;4.00;;;;;;;-139.48;100.00;61774.03;4993817;28;20537;-69
2021/05/13 04:08:03;;;;;;;7.30;4.78;;;;;;;-139.48;100.00;61774.03;4993948;28;20471;-69
2021/05/13 04:10:47;;;;;;;8.20;3.95;;;;;;;-139.48;100.00;61774.03;4979217;28;20454;-67
2021/05/13 04:13:31;;;;;;;5.22;4.00;;;;;;;-139.48;100.00;61774.03;4992972;28;20415;-69
2021/05/13 04:16:23;;;;;;;5.50;4.68;;;;;;;-139.48;100.00;61774.03;4979250;28;20049;-69
2021/05/13 04:19:08;;;;;;;5.78;4.00;;;;;;;-139.48;100.00;61774.03;4980300;28;20111;-69
2021/05/13 04:21:52;;;;;;;9.90;4.18;;;;;;;-139.48;100.00;61774.03;4992818;28;20479;-69
2021/05/13 04:24:35;;;;;;;6.90;4.75;;;;;;;-139.48;100.00;61774.03;4992768;28;20201;-69
2021/05/13 04:27:19;;;;;;;5.95;4.13;;;;;;;-139.48;100.00;61774.03;4992764;28;20184;-69
2021/05/13 04:30:04;;;;;;;7.63;4.30;;;;;;;-139.48;100.00;61774.03;4978829;28;20049;-69
2021/05/13 04:32:48;;;;;;;6.00;4.35;;;;;;;-139.48;100.00;61774.03;4992551;28;20049;-69
2021/05/13 04:35:32;;;;;;;5.68;3.95;;;;;;;-139.48;100.00;61774.03;4978861;28;20045;-69
2021/05/13 04:38:18;;;;;;;5.40;4.40;;;;;;;-139.48;100.00;61774.03;4978691;28;20057;-69
2021/05/13 04:41:02;;;;;;;5.72;4.38;;;;;;;-139.48;100.00;61774.03;4992400;28;20387;-69
2021/05/13 04:43:46;;;;;;;6.53;4.20;;;;;;;-139.48;100.00;61774.03;4992495;28;20133;-67
2021/05/13 04:46:32;;;;;;;11.48;4.75;;;;;;;-139.48;100.00;61774.03;4992421;28;20100;-69
2021/05/13 04:49:16;;;;;;;5.50;4.40;;;;;;;-139.48;100.00;61774.03;4992636;28;20126;-69
2021/05/13 04:52:00;;;;;;;4.88;4.32;;;;;;;-139.48;100.00;61774.03;4992429;28;20100;-69
2021/05/13 04:54:48;;;;;;;4.85;4.35;;;;;;;-139.48;100.00;61774.03;4992410;28;20129;-69
2021/05/13 04:57:32;;;;;;;5.45;4.53;;;;;;;-139.48;100.00;61774.03;4992396;28;20177;-69
2021/05/13 05:00:16;;;;;;;5.95;4.50;;;;;;;-139.48;100.00;61774.03;4995628;28;20471;-69
2021/05/13 05:03:00;;;;;;;7.90;4.65;;;;;;;-139.48;100.00;61774.03;4985101;28;20104;-69
2021/05/13 05:05:44;;;;;;;5.30;4.38;;;;;;;-139.48;100.00;61774.03;4999850;28;20101;-69
2021/05/13 05:08:28;;;;;;;4.97;4.03;;;;;;;-139.48;100.00;61774.03;4999607;28;20130;-69
2021/05/13 05:11:13;;;;;;;5.18;4.47;;;;;;;-139.48;100.00;61774.03;4999708;28;20133;-69
2021/05/13 05:13:57;;;;;;;5.75;4.65;;;;;;;-139.48;100.00;61774.03;4985139;28;20072;-69
2021/05/13 05:16:41;;;;;;;6.50;4.90;;;;;;;-139.48;100.00;61774.03;4999845;28;20041;-69
2021/05/13 05:19:25;;;;;;;8.35;5.22;;;;;;;-139.48;100.00;61774.03;4998732;28;20520;-69
2021/05/13 05:22:10;;;;;;;9.90;4.93;;;;;;;-139.48;100.00;61774.03;4998954;28;20108;-69
2021/05/13 05:24:54;;;;;;;5.38;4.38;;;;;;;-139.48;100.00;61774.03;5000349;28;20100;-68
2021/05/13 05:27:38;;;;;;;6.63;4.55;;;;;;;-139.48;100.00;61774.03;4999453;28;20068;-69
2021/05/13 05:30:22;;;;;;;8.10;5.00;;;;;;;-139.48;100.00;61774.03;4984813;28;20104;-69
2021/05/13 05:33:08;;;;;;;7.05;4.70;;;;;;;-139.48;100.00;61774.03;4999612;28;20502;-67
2021/05/13 05:35:52;;;;;;;8.02;4.80;;;;;;;-139.48;100.00;61774.03;4998301;28;20046;-69
2021/05/13 05:38:36;;;;;;;6.57;4.88;;;;;;;-139.48;100.00;61774.03;4998526;28;20167;-69
2021/05/13 05:41:20;;;;;;;11.40;5.45;;;;;;;-139.48;100.00;61774.03;4998243;28;20570;-69
2021/05/13 05:44:05;;;;;;;8.70;6.10;;;;;;;-139.48;100.00;61774.03;4998736;28;20124;-69
2021/05/13 05:46:48;;;;;;;12.75;5.30;;;;;;;-139.48;100.00;61774.03;4984744;28;20049;-69
2021/05/13 05:49:32;;;;;;;6.35;5.22;;;;;;;-139.48;100.00;61774.03;4998432;28;20176;-69
2021/05/13 05:52:16;;;;;;;6.13;4.90;;;;;;;-139.48;100.00;61774.03;4984628;28;20053;-69
2021/05/13 05:55:00;;;;;;;6.82;4.97;;;;;;;-139.48;100.00;61774.03;4999342;28;20077;-69
2021/05/13 05:57:44;;;;;;;10.57;4.82;;;;;;;-139.48;100.00;61774.03;4984349;28;20184;-69
2021/05/13 06:00:29;;;;;;;6.53;4.13;;;;;;;-139.48;100.00;61774.03;4998113;28;20049;-69
2021/05/13 06:03:12;;;;;;;7.47;4.07;;;;;;;-139.48;100.00;61774.03;4984458;28;20066;-68
2021/05/13 06:05:56;;;;;;;5.47;4.38;;;;;;;-139.48;100.00;61774.03;4998275;28;20594;-69
2021/05/13 06:08:40;;;;;;;8.68;4.80;;;;;;;-139.48;100.00;61774.03;4998651;28;20061;-69
2021/05/13 06:11:24;;;;;;;5.68;4.50;;;;;;;-139.48;100.00;61774.03;4982974;28;20423;-69
2021/05/13 06:14:08;;;;;;;7.07;4.88;;;;;;;-139.48;100.00;61774.03;4995064;28;20504;-69
2021/05/13 06:16:52;;;;;;;5.85;4.75;;;;;;;-139.48;100.00;61774.03;4981353;28;20069;-68
2021/05/13 06:19:36;;;;;;;4.72;4.22;;;;;;;-139.48;100.00;61774.03;4995844;28;20092;-68
2021/05/13 06:22:20;;;;;;;7.07;4.10;;;;;;;-139.48;100.00;61774.03;4995010;28;20128;-69
2021/05/13 06:25:04;;;;;;;7.13;4.60;;;;;;;-139.48;100.00;61774.03;4996107;28;20140;-69
2021/05/13 06:27:49;;;;;;;6.38;4.25;;;;;;;-139.48;100.00;61774.03;4996099;28;20088;-68
2021/05/13 06:30:33;;;;;;;5.72;4.43;;;;;;;-139.48;100.00;61774.03;4980998;28;20050;-69
2021/05/13 06:33:16;;;;;;;10.07;5.57;;;;;;;-139.48;100.00;61774.03;4981029;28;20053;-69
2021/05/13 06:36:00;;;;;;;6.60;5.22;;;;;;;-139.48;100.00;61774.03;4995777;28;20100;-69
2021/05/13 06:38:46;;;;;;;12.60;6.07;;;;;;;-139.48;100.00;61774.03;4981206;28;20057;-69
2021/05/13 06:41:30;;;;;;;10.45;5.32;;;;;;;-139.48;100.00;61774.03;4994319;28;20101;-69
2021/05/13 06:44:14;;;;;;;6.15;5.05;;;;;;;-139.48;100.00;61774.03;4994576;28;20096;-69
2021/05/13 06:46:58;;;;;;;21.83;6.40;;;;;;;-139.48;100.00;61774.03;4994423;28;20085;-69
2021/05/13 06:49:42;;;;;;;7.50;5.13;;;;;;;-139.48;100.00;61774.03;4994549;28;20394;-68
2021/05/13 06:52:26;;;;;;;10.57;5.68;;;;;;;-139.48;100.00;61774.03;4995463;28;20550;-69
2021/05/13 06:55:10;;;;;;;11.27;5.32;;;;;;;-139.48;100.00;61774.03;4994079;28;20096;-69
2021/05/13 06:57:54;;;;;;;9.40;5.10;;;;;;;-139.48;100.00;61774.03;4994114;28;20057;-69
2021/05/13 07:00:38;;;;;;;6.78;5.53;;;;;;;-139.48;100.00;61774.03;4980736;28;20077;-69
2021/05/13 07:03:22;;;;;;;7.90;5.10;;;;;;;-139.48;100.00;61774.03;4994228;28;20057;-70
2021/05/13 07:06:06;;;;;;;10.52;4.38;;;;;;;-139.48;100.00;61774.03;4994273;28;20065;-68
2021/05/13 07:08:49;;;;;;;4.43;4.03;;;;;;;-139.48;100.00;61774.03;4993658;28;20108;-69
2021/05/13 07:11:34;;;;;;;4.90;4.40;;;;;;;-139.48;100.00;61774.03;4980496;28;20490;-69
2021/05/13 07:14:18;;;;;;;6.57;4.43;;;;;;;-139.48;100.00;61774.03;4994249;28;20123;-69
2021/05/13 07:17:02;;;;;;;14.68;4.68;;;;;;;-139.48;100.00;61774.03;4994849;28;20132;-69
2021/05/13 07:19:46;;;;;;;6.57;4.40;;;;;;;-139.48;100.00;61774.03;4994026;28;20177;-70
2021/05/13 07:22:30;;;;;;;5.07;4.18;;;;;;;-139.48;100.00;61774.03;4980042;28;20502;-69
2021/05/13 07:25:14;;;;;;;13.18;4.65;;;;;;;-139.48;100.00;61774.03;4980098;28;20124;-69
2021/05/13 07:27:58;;;;;;;7.93;4.30;;;;;;;-139.48;100.00;61774.03;4980067;28;20049;-68
2021/05/13 07:30:43;;;;;;;6.63;4.15;;;;;;;-139.48;100.00;61774.03;4993546;28;20061;-69
2021/05/13 07:33:26;;;;;;;5.22;4.38;;;;;;;-139.48;100.00;61774.03;4994727;28;20526;-69
2021/05/13 07:36:11;;;;;;;9.23;4.40;;;;;;;-139.48;100.00;61774.03;4993753;28;20049;-69
2021/05/13 07:38:55;;;;;;;6.15;4.20;;;;;;;-139.48;100.00;61774.03;4993404;28;20052;-69
2021/05/13 07:41:39;;;;;;;4.88;4.38;;;;;;;-139.48;100.00;61774.03;4993528;28;20073;-69
2021/05/13 07:44:25;;;;;;;6.10;3.58;;;;;;;-139.48;100.00;61774.03;4993446;28;20049;-69
2021/05/13 07:47:10;;;;;;;6.30;4.25;;;;;;;-139.48;100.00;61774.03;4993462;28;20053;-68
2021/05/13 07:49:54;;;;;;;6.50;3.75;;;;;;;-139.48;100.00;61774.03;4993129;28;20049;-69
2021/05/13 07:52:38;;;;;;;5.82;3.65;;;;;;;-139.48;100.00;61774.03;4994387;28;20056;-69
2021/05/13 07:55:22;;;;;;;8.52;3.80;;;;;;;-139.48;100.00;61774.03;4993329;28;20085;-68
2021/05/13 07:58:06;;;;;;;5.65;3.80;;;;;;;-139.48;100.00;61774.03;4993146;28;20053;-69
2021/05/13 08:00:51;;;;;;;8.95;3.85;;;;;;;-139.48;100.00;61774.03;4992834;28;20185;-68
2021/05/13 08:03:35;;;;;;;;;;;;;;;-139.48;100.00;61774.03;4993363;28;20053;-68
2021/05/13 08:06:19;;;;;;;10.97;3.87;;;;;;;-139.48;100.00;61774.03;4993060;28;19972;-69
2021/05/13 08:09:03;;;;;;;9.75;4.95;;;;;;;-139.48;100.00;61774.03;4993046;28;20045;-69
2021/05/13 08:11:48;;;;;;;8.82;4.47;;;;;;;-139.48;100.00;61774.03;4979321;28;20081;-69
2021/05/13 08:14:32;;;;;;;8.27;4.40;;;;;;;-139.48;100.00;61774.03;4979144;28;20112;-69
2021/05/13 08:17:16;;;;;;;6.00;4.22;;;;;;;-139.48;100.00;61774.03;4994218;28;20411;-69
2021/05/13 08:20:01;;;;;;;7.68;4.78;;;;;;;-139.48;100.00;61774.03;4992804;28;20423;-68
2021/05/13 08:22:48;;;;;;;5.85;4.22;;;;;;;-139.48;100.00;61774.03;4978976;28;20104;-69
2021/05/13 08:25:32;;;;;;;6.93;4.45;;;;;;;-139.48;100.00;61774.03;4992395;28;20101;-68
2021/05/13 08:28:17;;;;;;;6.78;3.80;;;;;;;-139.48;100.00;61774.03;4992980;28;20049;-69
2021/05/13 08:31:00;;;;;;;5.75;3.58;;;;;;;-139.48;100.00;61774.03;4978643;28;20053;-68
2021/05/13 08:33:45;;;;;;;7.75;3.25;;;;;;;-139.48;100.00;61774.03;4992553;28;20089;-68
2021/05/13 08:36:28;;;;;;;6.57;2.80;;;;;;;-139.48;100.00;61774.03;4992747;28;20045;-69
2021/05/13 08:39:12;;;;;;;3.92;2.45;;;;;;;-139.48;100.00;61774.03;4993556;28;20105;-68
2021/05/13 08:42:00;;;;;;;4.63;2.70;;;;;;;-139.48;100.00;61774.03;4993531;28;20065;-66
2021/05/13 08:44:44;;;;;;;6.85;2.67;;;;;;;-139.48;100.00;61774.03;4979155;28;20101;-69
2021/05/13 08:47:30;;;;;;;4.93;3.00;;;;;;;-139.48;100.00;61774.03;4992248;28;20050;-68
2021/05/13 08:50:16;;;;;;;5.95;3.50;;;;;;;-139.48;100.00;61774.03;4978771;28;20100;-68
2021/05/13 08:53:04;;;;;;;4.65;3.13;;;;;;;-139.48;100.00;61774.03;4993463;28;20061;-68
2021/05/13 08:55:49;;;;;;;5.25;2.80;;;;;;;-139.48;100.00;61774.03;4992422;28;20135;-69
2021/05/13 08:58:33;;;;;;;8.02;3.72;;;;;;;-139.48;100.00;61774.03;4993165;28;20115;-69
2021/05/13 09:01:21;;;;;;;5.25;3.47;;;;;;;-139.48;100.00;61774.03;4992114;28;20111;-67
2021/05/13 09:04:05;;;;;;;4.85;2.72;;;;;;;-139.48;100.00;61774.03;4993158;28;20155;-68
2021/05/13 09:06:49;;;;;;;6.38;3.03;;;;;;;-139.48;100.00;61774.03;4992305;28;20044;-69
2021/05/13 09:09:33;;;;;;;8.90;3.92;;;;;;;-139.48;100.00;61774.03;4992049;28;20105;-69
2021/05/13 09:12:19;;;;;;;6.80;3.60;;;;;;;-139.48;100.00;61774.03;4993525;28;20113;-69
2021/05/13 09:15:08;;;;;;;7.18;3.47;;;;;;;-139.48;100.00;61774.03;4992200;28;20497;-69
2021/05/13 09:17:58;;;;;;;10.02;3.50;;;;;;;-139.48;100.00;61774.03;4993012;28;20049;-69
2021/05/13 09:20:44;;;;;;;5.72;3.50;;;;;;;-139.48;100.00;61774.03;4993196;28;20057;-69
2021/05/13 09:23:28;;;;;;;7.03;3.10;;;;;;;-139.48;100.00;61774.03;4992169;28;20476;-69
2021/05/13 09:26:20;;;;;;;8.75;2.95;;;;;;;-139.48;100.00;61774.03;4978073;28;20070;-68
2021/05/13 09:29:10;;;;;;;3.85;2.60;;;;;;;-139.48;100.00;61774.03;4978100;28;20100;-68
2021/05/13 09:31:53;;;;;;;2.78;2.13;;;;;;;-139.48;100.00;61774.03;4978550;28;20390;-69
2021/05/13 09:34:39;;;;;;;6.25;2.80;;;;;;;-139.48;100.00;61774.03;4993103;28;20491;-69
2021/05/13 09:37:35;;;;;;;5.80;2.60;;;;;;;-139.48;100.00;61774.03;4991971;28;20084;-69
2021/05/13 09:40:52;;;;;;;5.35;2.67;;;;;;;-139.48;100.00;61774.03;4991868;28;20138;-68
2021/05/13 09:43:36;;;;;;;6.80;2.97;;;;;;;-139.48;100.00;61774.03;4992079;28;20479;-69
2021/05/13 09:46:31;;;;;;;3.75;2.90;;;;;;;-139.48;100.00;61774.03;4993504;28;20049;-69
2021/05/13 09:49:15;;;;;;;7.40;2.72;;;;;;;-139.48;100.00;61774.03;4996624;28;20077;-68
2021/05/13 09:51:59;;;;;;;4.07;2.10;;;;;;;-139.48;100.00;61774.03;4996432;28;20056;-68
2021/05/13 09:54:43;;;;;;;5.18;2.05;;;;;;;-139.48;100.00;61774.03;4981999;28;20522;-69
2021/05/13 09:57:28;;;;;;;1.90;1.65;;;;;;;-139.48;100.00;61774.03;4981733;28;20133;-69
2021/05/13 10:00:30;;;;;;;4.53;2.20;;;;;;;-139.48;100.00;61774.03;4996316;28;20096;-67
2021/05/13 10:03:22;;;;;;;4.55;2.83;;;;;;;-139.48;100.00;61774.03;4996495;28;20045;-69
2021/05/13 10:06:10;;;;;;;6.70;2.53;;;;;;;-139.48;100.00;61774.03;4995131;28;20092;-68
2021/05/13 10:08:54;;;;;;;5.93;2.40;;;;;;;-139.48;100.00;61774.03;4995240;28;20045;-69
2021/05/13 10:11:38;;;;;;;3.25;2.10;;;;;;;-139.48;100.00;61774.03;4981247;28;20108;-69
2021/05/13 10:14:25;;;;;;;5.25;2.60;;;;;;;-139.48;100.00;61774.03;4994825;28;20057;-69
2021/05/13 10:17:11;;;;;;;4.30;2.30;;;;;;;-139.48;100.00;61774.03;4995007;28;20458;-68
2021/05/13 10:19:56;;;;;;;4.47;1.98;;;;;;;-139.48;100.00;61774.03;4995151;28;20399;-69
2021/05/13 10:22:43;;;;;;;3.85;2.10;;;;;;;-139.48;100.00;61774.03;4994896;28;20105;-69
2021/05/13 10:25:30;;;;;;;5.43;2.15;;;;;;;-139.48;100.00;61774.03;4994756;28;20097;-68
2021/05/13 10:28:14;;;;;;;3.60;1.70;;;;;;;-139.48;100.00;61774.03;4994886;28;20502;-69
2021/05/13 10:31:02;;;;;;;6.63;1.63;;;;;;;-139.48;100.00;61774.03;4994796;28;20052;-70
2021/05/13 10:33:48;;;;;;;4.85;1.55;;;;;;;-139.48;100.00;61774.03;4995849;28;20049;-69
2021/05/13 10:36:32;;;;;;;4.32;1.42;;;;;;;-139.48;100.00;61774.03;4994480;28;20107;-68
2021/05/13 10:39:18;;;;;;;;;;;;;;;-139.48;100.00;61774.03;4995833;28;20209;-69
2021/05/13 10:42:30;;;;;;;5.40;1.55;;;;;;;-139.48;100.00;61774.03;4994761;28;20009;-69
2021/05/13 10:45:23;;;;;;;3.20;1.50;;;;;;;-139.48;100.00;61774.03;4980750;28;20097;-69
2021/05/13 10:48:15;;;;;;;11.63;1.70;;;;;;;-139.48;100.00;61774.03;4995540;28;20064;-68
2021/05/13 10:51:03;;;;;;;3.28;1.30;;;;;;;-139.48;100.00;61774.03;4980455;28;20132;-69
2021/05/13 10:53:47;;;;;;;4.68;1.73;;;;;;;-139.48;100.00;61774.03;4981095;28;20064;-69
2021/05/13 10:56:34;;;;;;;2.03;1.30;;;;;;;-139.48;100.00;61774.03;4980621;28;20096;-69
2021/05/13 10:59:18;;;;;;;3.72;1.45;;;;;;;-139.48;100.00;61774.03;4980254;28;20586;-69
2021/05/13 11:02:02;;;;;;;3.40;1.63;;;;;;;-139.48;100.00;61774.03;4994292;28;20554;-69
2021/05/13 11:04:46;;;;;;;4.13;1.77;;;;;;;-139.48;100.00;61774.03;4994101;28;20056;-69
2021/05/13 11:07:31;;;;;;;2.78;1.70;;;;;;;-139.48;100.00;61774.03;4994082;28;20511;-68
2021/05/13 11:10:15;;;;;;;4.43;1.67;;;;;;;-139.48;100.00;61774.03;4993775;28;20172;-69
2021/05/13 11:13:10;;;;;;;7.15;1.70;;;;;;;-139.48;100.00;61774.03;4980352;28;20100;-69
2021/05/13 11:15:54;;;;;;;2.47;1.38;;;;;;;-139.48;100.00;61774.03;4993933;28;20089;-68
2021/05/13 11:18:38;;;;;;;1.10;1.00;;;;;;;-139.48;100.00;61774.03;4993847;28;20084;-69
2021/05/13 11:21:23;;;;;;;4.50;1.20;;;;;;;-139.48;100.00;61774.03;4979961;28;20053;-68
2021/05/13 11:24:10;;;;;;;2.75;1.30;;;;;;;-139.48;100.00;61774.03;4979902;28;20491;-69
2021/05/13 11:26:55;;;;;;;1.90;1.40;;;;;;;-139.48;100.00;61774.03;4979880;28;20042;-69
2021/05/13 11:29:48;;;;;;;3.17;1.52;;;;;;;-139.48;100.00;61774.03;4979562;28;20129;-68
2021/05/13 11:32:34;;;;;;;2.40;1.38;;;;;;;-139.48;100.00;61774.03;4993466;28;20048;-67
2021/05/13 11:35:22;;;;;;;2.92;1.20;;;;;;;-139.48;100.00;61774.03;4994608;28;20513;-69
2021/05/13 11:38:22;;;;;;;6.88;1.25;;;;;;;-139.48;100.00;61774.03;4993471;28;20093;-68
2021/05/13 11:41:06;;;;;;;3.47;1.30;;;;;;;-139.48;100.00;61774.03;4993245;28;20053;-68
2021/05/13 11:43:51;;;;;;;3.83;1.40;;;;;;;-139.48;100.00;61774.03;4993506;28;20049;-68
2021/05/13 11:46:36;;;;;;;5.60;1.30;;;;;;;-139.48;100.00;61774.03;4993235;28;20057;-68
2021/05/13 11:49:20;;;;;;;2.75;1.20;;;;;;;-139.48;100.00;61774.03;4993332;28;20053;-68
2021/05/13 11:52:04;;;;;;;3.42;1.52;;;;;;;-139.48;100.00;61774.03;4994432;28;20104;-68
2021/05/13 11:54:48;;;;;;;2.83;1.42;;;;;;;-139.48;100.00;61774.03;4993248;28;20152;-68
2021/05/13 11:57:32;;;;;;;8.70;1.77;;;;;;;-139.48;100.00;61774.03;4993045;28;20053;-69
2021/05/13 12:00:20;;;;;;;2.00;1.30;;;;;;;-139.48;100.00;61774.03;4979406;28;20053;-67
2021/05/13 12:03:15;;;;;;;3.85;1.42;;;;;;;-139.48;100.00;61774.03;4993097;28;20061;-68
2021/05/13 12:05:59;;;;;;;4.93;1.98;;;;;;;-139.48;100.00;61774.03;4993075;28;20066;-68
2021/05/13 12:08:43;;;;;;;4.32;1.50;;;;;;;-139.48;100.00;61774.03;4992710;28;20530;-68
2021/05/13 12:11:28;;;;;;;2.15;1.40;;;;;;;-139.48;100.00;61774.03;5002119;23;20149;-70
2021/05/13 12:14:16;;;;;;;5.53;1.90;;;;;;;-139.48;100.00;61774.03;4979506;28;20141;-70
2021/05/13 12:17:03;;;;;;;8.15;1.55;;;;;;;-139.48;100.00;61774.03;4993023;28;20100;-70
2021/05/13 12:19:48;;;;;;;3.47;1.42;;;;;;;-139.48;100.00;61774.03;4992985;28;20104;-69
2021/05/13 12:22:31;;;;;;;;;;;;;;;-139.48;100.00;61774.03;4979540;28;20100;-70
2021/05/13 12:25:16;;;;;;;2.05;1.50;;;;;;;-139.48;100.00;61774.03;4992903;28;19964;-70
2021/05/13 12:27:59;;;;;;;;;;;;;;;-139.48;100.00;61774.03;4993297;28;20053;-70
2021/05/13 12:30:51;;;;;;;7.43;1.57;;;;;;;-139.48;100.00;61774.03;4992797;28;20012;-70
2021/05/13 12:33:40;;;;;;;4.25;1.50;;;;;;;-139.48;100.00;61774.03;4992784;28;20275;-69
2021/05/13 12:36:24;;;;;;;4.18;1.58;;;;;;;-139.48;100.00;61774.03;4978970;28;20112;-71
2021/05/13 12:39:08;;;;;;;2.70;1.60;;;;;;;-139.48;100.00;61774.03;4992705;28;20565;-71